Terminal Aerodrome Forecast
Issued by NWS Dallas/Fort Worth, TX

Home | Current Version | Previous Version | Text Only | Print | Product List | Glossary On
Versions: 1 2 3 4 5 6 7 8 9 10 11 12 13 14 15 16 17 18 19 20 21 22 23 24 25 26 27 28 29 30 31
000
FTUS44 KFWD 280528
TAFDFW
TAF
KDFW 280528Z 2806/0112 18011KT P6SM SCT040 BKN250
     FM280800 18013KT P6SM OVC015
     FM281000 17012KT 5SM BR OVC007
     FM281800 20015KT P6SM OVC015
     FM282100 21016KT P6SM SCT015 BKN040
     FM010100 18013KT P6SM OVC250
     FM011000 28012KT P6SM BKN250=

USA.gov is the U.S. government's official web portal to all federal, state and local government web resources and services.